sensor_id;sensor_type;location;lat;lon;timestamp;P1;durP1;ratioP1;P2;durP2;ratioP2
15096;SDS011;7649;52.084;7.478;2023-07-29T00:01:31;4.65;;;4.35;;
15096;SDS011;7649;52.084;7.478;2023-07-29T00:03:59;5.18;;;4.38;;
15096;SDS011;7649;52.084;7.478;2023-07-29T00:06:28;3.92;;;3.55;;
15096;SDS011;7649;52.084;7.478;2023-07-29T00:08:56;4.32;;;3.95;;
15096;SDS011;7649;52.084;7.478;2023-07-29T00:11:25;3.67;;;3.38;;
15096;SDS011;7649;52.084;7.478;2023-07-29T00:13:54;3.17;;;2.90;;
15096;SDS011;7649;52.084;7.478;2023-07-29T00:16:22;3.33;;;3.13;;
15096;SDS011;7649;52.084;7.478;2023-07-29T00:18:51;3.70;;;3.40;;
15096;SDS011;7649;52.084;7.478;2023-07-29T00:21:19;3.05;;;2.85;;
15096;SDS011;7649;52.084;7.478;2023-07-29T00:23:47;3.42;;;3.22;;
15096;SDS011;7649;52.084;7.478;2023-07-29T00:26:16;3.67;;;3.25;;
15096;SDS011;7649;52.084;7.478;2023-07-29T00:28:44;3.45;;;3.20;;
15096;SDS011;7649;52.084;7.478;2023-07-29T00:31:14;3.92;;;3.63;;
15096;SDS011;7649;52.084;7.478;2023-07-29T00:33:42;4.18;;;3.40;;
15096;SDS011;7649;52.084;7.478;2023-07-29T00:36:10;3.58;;;3.17;;
15096;SDS011;7649;52.084;7.478;2023-07-29T00:38:39;4.20;;;3.80;;
15096;SDS011;7649;52.084;7.478;2023-07-29T00:41:07;4.22;;;3.72;;
15096;SDS011;7649;52.084;7.478;2023-07-29T00:43:39;4.00;;;3.70;;
15096;SDS011;7649;52.084;7.478;2023-07-29T00:46:08;4.95;;;4.45;;
15096;SDS011;7649;52.084;7.478;2023-07-29T00:48:38;4.22;;;3.92;;
15096;SDS011;7649;52.084;7.478;2023-07-29T00:51:07;4.50;;;3.65;;
15096;SDS011;7649;52.084;7.478;2023-07-29T00:53:37;4.50;;;4.10;;
15096;SDS011;7649;52.084;7.478;2023-07-29T00:56:05;4.40;;;4.10;;
15096;SDS011;7649;52.084;7.478;2023-07-29T00:58:34;4.55;;;4.18;;
15096;SDS011;7649;52.084;7.478;2023-07-29T01:01:02;4.97;;;4.50;;
15096;SDS011;7649;52.084;7.478;2023-07-29T01:03:31;5.10;;;4.70;;
15096;SDS011;7649;52.084;7.478;2023-07-29T01:06:04;5.50;;;4.82;;
15096;SDS011;7649;52.084;7.478;2023-07-29T01:08:38;5.20;;;4.70;;
15096;SDS011;7649;52.084;7.478;2023-07-29T01:11:08;6.03;;;4.78;;
15096;SDS011;7649;52.084;7.478;2023-07-29T01:13:44;5.88;;;5.00;;
15096;SDS011;7649;52.084;7.478;2023-07-29T01:16:13;5.20;;;4.80;;
15096;SDS011;7649;52.084;7.478;2023-07-29T01:19:11;5.75;;;5.20;;
15096;SDS011;7649;52.084;7.478;2023-07-29T01:21:45;5.38;;;4.90;;
15096;SDS011;7649;52.084;7.478;2023-07-29T01:24:14;5.20;;;4.80;;
15096;SDS011;7649;52.084;7.478;2023-07-29T01:26:47;5.20;;;4.80;;
15096;SDS011;7649;52.084;7.478;2023-07-29T01:29:15;5.35;;;4.90;;
15096;SDS011;7649;52.084;7.478;2023-07-29T01:31:45;6.65;;;4.95;;
15096;SDS011;7649;52.084;7.478;2023-07-29T01:34:17;6.00;;;5.53;;
15096;SDS011;7649;52.084;7.478;2023-07-29T01:36:51;7.40;;;5.47;;
15096;SDS011;7649;52.084;7.478;2023-07-29T01:39:21;5.95;;;5.45;;
15096;SDS011;7649;52.084;7.478;2023-07-29T01:41:50;6.80;;;6.15;;
15096;SDS011;7649;52.084;7.478;2023-07-29T01:44:19;6.60;;;6.00;;
15096;SDS011;7649;52.084;7.478;2023-07-29T01:46:47;7.13;;;6.53;;
15096;SDS011;7649;52.084;7.478;2023-07-29T01:49:16;6.95;;;6.43;;
15096;SDS011;7649;52.084;7.478;2023-07-29T01:51:44;7.47;;;6.78;;
15096;SDS011;7649;52.084;7.478;2023-07-29T01:54:12;8.75;;;7.88;;
15096;SDS011;7649;52.084;7.478;2023-07-29T01:56:42;8.38;;;7.68;;
15096;SDS011;7649;52.084;7.478;2023-07-29T01:59:11;8.82;;;7.93;;
15096;SDS011;7649;52.084;7.478;2023-07-29T02:01:40;9.40;;;8.60;;
15096;SDS011;7649;52.084;7.478;2023-07-29T02:04:08;9.00;;;8.30;;
15096;SDS011;7649;52.084;7.478;2023-07-29T02:06:37;10.25;;;9.30;;
15096;SDS011;7649;52.084;7.478;2023-07-29T02:09:05;9.70;;;8.90;;
15096;SDS011;7649;52.084;7.478;2023-07-29T02:11:34;9.10;;;8.20;;
15096;SDS011;7649;52.084;7.478;2023-07-29T02:14:03;9.32;;;8.57;;
15096;SDS011;7649;52.084;7.478;2023-07-29T02:16:32;10.20;;;9.32;;
15096;SDS011;7649;52.084;7.478;2023-07-29T02:19:01;10.63;;;9.57;;
15096;SDS011;7649;52.084;7.478;2023-07-29T02:21:31;10.10;;;9.10;;
15096;SDS011;7649;52.084;7.478;2023-07-29T02:23:59;11.00;;;10.10;;
15096;SDS011;7649;52.084;7.478;2023-07-29T02:26:27;10.13;;;9.32;;
15096;SDS011;7649;52.084;7.478;2023-07-29T02:28:56;11.02;;;10.13;;
15096;SDS011;7649;52.084;7.478;2023-07-29T02:31:25;12.25;;;11.25;;
15096;SDS011;7649;52.084;7.478;2023-07-29T02:33:54;11.30;;;10.40;;
15096;SDS011;7649;52.084;7.478;2023-07-29T02:36:22;12.52;;;11.52;;
15096;SDS011;7649;52.084;7.478;2023-07-29T02:38:51;12.15;;;11.15;;
15096;SDS011;7649;52.084;7.478;2023-07-29T02:41:19;12.52;;;11.27;;
15096;SDS011;7649;52.084;7.478;2023-07-29T02:43:48;15.48;;;11.85;;
15096;SDS011;7649;52.084;7.478;2023-07-29T02:46:16;13.13;;;11.93;;
15096;SDS011;7649;52.084;7.478;2023-07-29T02:48:46;13.43;;;12.32;;
15096;SDS011;7649;52.084;7.478;2023-07-29T02:51:14;13.82;;;12.63;;
15096;SDS011;7649;52.084;7.478;2023-07-29T02:53:43;14.70;;;13.32;;
15096;SDS011;7649;52.084;7.478;2023-07-29T02:56:11;13.70;;;12.60;;
15096;SDS011;7649;52.084;7.478;2023-07-29T02:58:40;13.43;;;12.32;;
15096;SDS011;7649;52.084;7.478;2023-07-29T03:01:08;13.57;;;12.57;;
15096;SDS011;7649;52.084;7.478;2023-07-29T03:03:36;14.23;;;13.07;;
15096;SDS011;7649;52.084;7.478;2023-07-29T03:06:07;14.60;;;13.40;;
15096;SDS011;7649;52.084;7.478;2023-07-29T03:08:36;14.98;;;13.77;;
15096;SDS011;7649;52.084;7.478;2023-07-29T03:11:05;15.10;;;13.68;;
15096;SDS011;7649;52.084;7.478;2023-07-29T03:13:34;14.80;;;13.70;;
15096;SDS011;7649;52.084;7.478;2023-07-29T03:16:06;15.50;;;14.20;;
15096;SDS011;7649;52.084;7.478;2023-07-29T03:18:34;15.20;;;13.60;;
15096;SDS011;7649;52.084;7.478;2023-07-29T03:21:03;15.25;;;14.00;;
15096;SDS011;7649;52.084;7.478;2023-07-29T03:23:33;15.15;;;13.70;;
15096;SDS011;7649;52.084;7.478;2023-07-29T03:26:03;15.35;;;14.20;;
15096;SDS011;7649;52.084;7.478;2023-07-29T03:28:37;15.50;;;14.32;;
15096;SDS011;7649;52.084;7.478;2023-07-29T03:31:05;15.35;;;13.90;;
15096;SDS011;7649;52.084;7.478;2023-07-29T03:33:34;15.93;;;14.50;;
15096;SDS011;7649;52.084;7.478;2023-07-29T03:36:03;15.52;;;14.13;;
15096;SDS011;7649;52.084;7.478;2023-07-29T03:38:32;15.20;;;13.80;;
15096;SDS011;7649;52.084;7.478;2023-07-29T03:41:06;14.05;;;12.95;;
15096;SDS011;7649;52.084;7.478;2023-07-29T03:43:34;15.15;;;13.93;;
15096;SDS011;7649;52.084;7.478;2023-07-29T03:46:03;15.50;;;13.07;;
15096;SDS011;7649;52.084;7.478;2023-07-29T03:48:33;14.93;;;13.63;;
15096;SDS011;7649;52.084;7.478;2023-07-29T03:51:02;15.32;;;14.13;;
15096;SDS011;7649;52.084;7.478;2023-07-29T03:53:30;15.65;;;14.43;;
15096;SDS011;7649;52.084;7.478;2023-07-29T03:56:00;14.18;;;13.18;;
15096;SDS011;7649;52.084;7.478;2023-07-29T03:58:29;15.82;;;14.57;;
15096;SDS011;7649;52.084;7.478;2023-07-29T04:00:57;14.50;;;13.40;;
15096;SDS011;7649;52.084;7.478;2023-07-29T04:03:26;15.20;;;13.77;;
15096;SDS011;7649;52.084;7.478;2023-07-29T04:05:54;14.32;;;13.18;;
15096;SDS011;7649;52.084;7.478;2023-07-29T04:08:23;14.23;;;13.10;;
15096;SDS011;7649;52.084;7.478;2023-07-29T04:10:51;15.25;;;13.95;;
15096;SDS011;7649;52.084;7.478;2023-07-29T04:13:21;15.02;;;13.82;;
15096;SDS011;7649;52.084;7.478;2023-07-29T04:15:49;15.35;;;14.10;;
15096;SDS011;7649;52.084;7.478;2023-07-29T04:18:18;15.30;;;14.20;;
15096;SDS011;7649;52.084;7.478;2023-07-29T04:20:46;14.80;;;13.60;;
15096;SDS011;7649;52.084;7.478;2023-07-29T04:23:15;15.10;;;13.98;;
15096;SDS011;7649;52.084;7.478;2023-07-29T04:25:43;15.45;;;14.25;;
15096;SDS011;7649;52.084;7.478;2023-07-29T04:28:11;15.52;;;14.02;;
15096;SDS011;7649;52.084;7.478;2023-07-29T04:30:41;16.30;;;14.80;;
15096;SDS011;7649;52.084;7.478;2023-07-29T04:33:09;16.75;;;15.27;;
15096;SDS011;7649;52.084;7.478;2023-07-29T04:35:38;16.08;;;14.77;;
15096;SDS011;7649;52.084;7.478;2023-07-29T04:38:06;15.82;;;14.52;;
15096;SDS011;7649;52.084;7.478;2023-07-29T04:40:34;16.02;;;14.65;;
15096;SDS011;7649;52.084;7.478;2023-07-29T04:43:02;15.70;;;14.35;;
15096;SDS011;7649;52.084;7.478;2023-07-29T04:45:31;16.50;;;15.00;;
15096;SDS011;7649;52.084;7.478;2023-07-29T04:48:00;15.73;;;14.40;;
15096;SDS011;7649;52.084;7.478;2023-07-29T04:50:29;16.00;;;14.50;;
15096;SDS011;7649;52.084;7.478;2023-07-29T04:52:57;16.05;;;14.73;;
15096;SDS011;7649;52.084;7.478;2023-07-29T04:55:25;15.55;;;14.25;;
15096;SDS011;7649;52.084;7.478;2023-07-29T04:57:54;14.88;;;13.65;;
15096;SDS011;7649;52.084;7.478;2023-07-29T05:00:22;14.65;;;13.40;;
15096;SDS011;7649;52.084;7.478;2023-07-29T05:02:50;14.93;;;13.48;;
15096;SDS011;7649;52.084;7.478;2023-07-29T05:05:20;14.43;;;13.27;;
15096;SDS011;7649;52.084;7.478;2023-07-29T05:07:48;14.70;;;13.40;;
15096;SDS011;7649;52.084;7.478;2023-07-29T05:10:17;14.85;;;13.45;;
15096;SDS011;7649;52.084;7.478;2023-07-29T05:12:45;14.70;;;13.40;;
15096;SDS011;7649;52.084;7.478;2023-07-29T05:15:13;15.70;;;14.43;;
15096;SDS011;7649;52.084;7.478;2023-07-29T05:17:42;15.85;;;14.38;;
15096;SDS011;7649;52.084;7.478;2023-07-29T05:20:10;15.68;;;14.32;;
15096;SDS011;7649;52.084;7.478;2023-07-29T05:22:40;17.20;;;15.70;;
15096;SDS011;7649;52.084;7.478;2023-07-29T05:25:08;17.27;;;15.70;;
15096;SDS011;7649;52.084;7.478;2023-07-29T05:27:36;16.00;;;14.55;;
15096;SDS011;7649;52.084;7.478;2023-07-29T05:30:05;16.98;;;15.48;;
15096;SDS011;7649;52.084;7.478;2023-07-29T05:32:34;16.83;;;15.32;;
15096;SDS011;7649;52.084;7.478;2023-07-29T05:35:02;16.05;;;14.48;;
15096;SDS011;7649;52.084;7.478;2023-07-29T05:37:31;16.98;;;15.68;;
15096;SDS011;7649;52.084;7.478;2023-07-29T05:40:00;16.23;;;15.02;;
15096;SDS011;7649;52.084;7.478;2023-07-29T05:42:29;16.77;;;15.27;;
15096;SDS011;7649;52.084;7.478;2023-07-29T05:44:57;17.15;;;15.85;;
15096;SDS011;7649;52.084;7.478;2023-07-29T05:47:25;16.73;;;15.43;;
15096;SDS011;7649;52.084;7.478;2023-07-29T05:49:54;17.40;;;15.88;;
15096;SDS011;7649;52.084;7.478;2023-07-29T05:52:22;17.00;;;15.60;;
15096;SDS011;7649;52.084;7.478;2023-07-29T05:54:51;16.67;;;15.27;;
15096;SDS011;7649;52.084;7.478;2023-07-29T05:57:20;17.67;;;16.38;;
15096;SDS011;7649;52.084;7.478;2023-07-29T05:59:48;17.33;;;15.52;;
15096;SDS011;7649;52.084;7.478;2023-07-29T06:02:17;16.25;;;14.85;;
15096;SDS011;7649;52.084;7.478;2023-07-29T06:04:45;16.73;;;15.43;;
15096;SDS011;7649;52.084;7.478;2023-07-29T06:07:13;16.52;;;15.13;;
15096;SDS011;7649;52.084;7.478;2023-07-29T06:09:42;16.23;;;14.80;;
15096;SDS011;7649;52.084;7.478;2023-07-29T06:12:10;16.33;;;15.00;;
15096;SDS011;7649;52.084;7.478;2023-07-29T06:14:40;15.50;;;14.30;;
15096;SDS011;7649;52.084;7.478;2023-07-29T06:17:09;15.15;;;13.95;;
15096;SDS011;7649;52.084;7.478;2023-07-29T06:19:38;15.13;;;13.80;;
15096;SDS011;7649;52.084;7.478;2023-07-29T06:22:06;14.73;;;13.60;;
15096;SDS011;7649;52.084;7.478;2023-07-29T06:24:34;13.65;;;12.55;;
15096;SDS011;7649;52.084;7.478;2023-07-29T06:27:03;13.25;;;12.20;;
15096;SDS011;7649;52.084;7.478;2023-07-29T06:29:31;12.93;;;11.82;;
15096;SDS011;7649;52.084;7.478;2023-07-29T06:32:01;11.02;;;10.10;;
15096;SDS011;7649;52.084;7.478;2023-07-29T06:34:29;10.20;;;9.20;;
15096;SDS011;7649;52.084;7.478;2023-07-29T06:36:57;7.53;;;6.93;;
15096;SDS011;7649;52.084;7.478;2023-07-29T06:39:26;7.38;;;6.63;;
15096;SDS011;7649;52.084;7.478;2023-07-29T06:41:54;4.43;;;4.03;;
15096;SDS011;7649;52.084;7.478;2023-07-29T06:44:23;2.95;;;2.30;;
15096;SDS011;7649;52.084;7.478;2023-07-29T06:46:51;2.10;;;2.00;;
15096;SDS011;7649;52.084;7.478;2023-07-29T06:49:21;1.90;;;1.80;;
15096;SDS011;7649;52.084;7.478;2023-07-29T06:51:49;1.92;;;1.83;;
15096;SDS011;7649;52.084;7.478;2023-07-29T06:54:18;2.10;;;1.75;;
15096;SDS011;7649;52.084;7.478;2023-07-29T06:56:46;1.80;;;1.70;;
15096;SDS011;7649;52.084;7.478;2023-07-29T06:59:14;1.80;;;1.70;;
15096;SDS011;7649;52.084;7.478;2023-07-29T07:01:43;2.03;;;1.60;;
15096;SDS011;7649;52.084;7.478;2023-07-29T07:04:11;2.40;;;1.70;;
15096;SDS011;7649;52.084;7.478;2023-07-29T07:06:41;2.00;;;1.80;;
15096;SDS011;7649;52.084;7.478;2023-07-29T07:09:09;3.50;;;1.95;;
15096;SDS011;7649;52.084;7.478;2023-07-29T07:11:40;2.50;;;1.65;;
15096;SDS011;7649;52.084;7.478;2023-07-29T07:14:09;2.58;;;1.80;;
15096;SDS011;7649;52.084;7.478;2023-07-29T07:16:37;2.08;;;1.88;;
15096;SDS011;7649;52.084;7.478;2023-07-29T07:19:06;2.15;;;2.05;;
15096;SDS011;7649;52.084;7.478;2023-07-29T07:21:34;1.90;;;1.80;;
15096;SDS011;7649;52.084;7.478;2023-07-29T07:24:04;2.55;;;1.90;;
15096;SDS011;7649;52.084;7.478;2023-07-29T07:26:33;1.90;;;1.80;;
15096;SDS011;7649;52.084;7.478;2023-07-29T07:29:04;2.55;;;1.60;;
15096;SDS011;7649;52.084;7.478;2023-07-29T07:31:32;2.22;;;1.83;;
15096;SDS011;7649;52.084;7.478;2023-07-29T07:34:01;2.15;;;1.75;;
15096;SDS011;7649;52.084;7.478;2023-07-29T07:36:30;2.17;;;1.98;;
15096;SDS011;7649;52.084;7.478;2023-07-29T07:38:58;3.50;;;1.90;;
15096;SDS011;7649;52.084;7.478;2023-07-29T07:41:28;2.58;;;2.22;;
15096;SDS011;7649;52.084;7.478;2023-07-29T07:43:56;1.75;;;1.65;;
15096;SDS011;7649;52.084;7.478;2023-07-29T07:46:25;3.85;;;2.20;;
15096;SDS011;7649;52.084;7.478;2023-07-29T07:48:55;3.20;;;2.05;;
15096;SDS011;7649;52.084;7.478;2023-07-29T07:51:23;2.22;;;2.03;;
15096;SDS011;7649;52.084;7.478;2023-07-29T07:53:51;3.67;;;2.13;;
15096;SDS011;7649;52.084;7.478;2023-07-29T07:56:20;2.35;;;2.22;;
15096;SDS011;7649;52.084;7.478;2023-07-29T07:58:50;3.42;;;2.30;;
15096;SDS011;7649;52.084;7.478;2023-07-29T08:01:18;2.25;;;2.05;;
15096;SDS011;7649;52.084;7.478;2023-07-29T08:03:47;2.78;;;2.30;;
15096;SDS011;7649;52.084;7.478;2023-07-29T08:06:15;4.03;;;2.00;;
15096;SDS011;7649;52.084;7.478;2023-07-29T08:08:43;2.85;;;2.15;;
15096;SDS011;7649;52.084;7.478;2023-07-29T08:11:12;2.35;;;2.20;;
15096;SDS011;7649;52.084;7.478;2023-07-29T08:13:40;2.38;;;2.17;;
15096;SDS011;7649;52.084;7.478;2023-07-29T08:16:10;2.78;;;2.30;;
15096;SDS011;7649;52.084;7.478;2023-07-29T08:18:38;2.42;;;2.22;;
15096;SDS011;7649;52.084;7.478;2023-07-29T08:21:07;2.65;;;2.45;;
15096;SDS011;7649;52.084;7.478;2023-07-29T08:23:38;2.38;;;2.10;;
15096;SDS011;7649;52.084;7.478;2023-07-29T08:26:12;2.53;;;2.33;;
15096;SDS011;7649;52.084;7.478;2023-07-29T08:28:40;2.80;;;2.30;;
15096;SDS011;7649;52.084;7.478;2023-07-29T08:31:14;3.25;;;2.63;;
15096;SDS011;7649;52.084;7.478;2023-07-29T08:33:44;2.20;;;2.03;;
15096;SDS011;7649;52.084;7.478;2023-07-29T08:36:15;2.30;;;2.20;;
15096;SDS011;7649;52.084;7.478;2023-07-29T08:38:44;2.03;;;1.92;;
15096;SDS011;7649;52.084;7.478;2023-07-29T08:41:13;2.10;;;1.77;;
15096;SDS011;7649;52.084;7.478;2023-07-29T08:43:43;1.90;;;1.80;;
15096;SDS011;7649;52.084;7.478;2023-07-29T08:46:11;2.25;;;2.05;;
15096;SDS011;7649;52.084;7.478;2023-07-29T08:48:43;2.45;;;2.25;;
15096;SDS011;7649;52.084;7.478;2023-07-29T08:51:12;2.53;;;2.05;;
15096;SDS011;7649;52.084;7.478;2023-07-29T08:53:40;2.55;;;2.10;;
15096;SDS011;7649;52.084;7.478;2023-07-29T08:56:09;2.00;;;1.90;;
15096;SDS011;7649;52.084;7.478;2023-07-29T08:58:38;1.48;;;1.38;;
15096;SDS011;7649;52.084;7.478;2023-07-29T09:01:07;1.80;;;1.70;;
15096;SDS011;7649;52.084;7.478;2023-07-29T09:03:36;1.35;;;1.30;;
15096;SDS011;7649;52.084;7.478;2023-07-29T09:06:06;1.45;;;1.35;;
15096;SDS011;7649;52.084;7.478;2023-07-29T09:08:35;3.08;;;1.60;;
15096;SDS011;7649;52.084;7.478;2023-07-29T09:11:03;1.70;;;1.50;;
15096;SDS011;7649;52.084;7.478;2023-07-29T09:13:32;1.95;;;1.20;;
15096;SDS011;7649;52.084;7.478;2023-07-29T09:16:00;3.75;;;1.73;;
15096;SDS011;7649;52.084;7.478;2023-07-29T09:18:29;1.40;;;1.30;;
15096;SDS011;7649;52.084;7.478;2023-07-29T09:20:58;1.92;;;1.33;;
15096;SDS011;7649;52.084;7.478;2023-07-29T09:23:32;2.83;;;1.80;;
15096;SDS011;7649;52.084;7.478;2023-07-29T09:26:06;1.25;;;1.17;;
15096;SDS011;7649;52.084;7.478;2023-07-29T09:28:35;2.25;;;1.15;;
15096;SDS011;7649;52.084;7.478;2023-07-29T09:31:04;1.38;;;1.10;;
15096;SDS011;7649;52.084;7.478;2023-07-29T09:33:33;2.65;;;1.20;;
15096;SDS011;7649;52.084;7.478;2023-07-29T09:36:07;1.17;;;1.00;;
15096;SDS011;7649;52.084;7.478;2023-07-29T09:38:38;0.77;;;0.77;;
15096;SDS011;7649;52.084;7.478;2023-07-29T09:41:06;0.80;;;0.80;;
15096;SDS011;7649;52.084;7.478;2023-07-29T09:43:35;1.75;;;1.10;;
15096;SDS011;7649;52.084;7.478;2023-07-29T09:46:04;1.98;;;1.13;;
15096;SDS011;7649;52.084;7.478;2023-07-29T09:48:33;1.83;;;0.93;;
15096;SDS011;7649;52.084;7.478;2023-07-29T09:51:09;0.90;;;0.90;;
15096;SDS011;7649;52.084;7.478;2023-07-29T09:53:42;2.97;;;1.10;;
15096;SDS011;7649;52.084;7.478;2023-07-29T09:56:12;1.80;;;1.17;;
15096;SDS011;7649;52.084;7.478;2023-07-29T09:58:41;1.42;;;0.95;;
15096;SDS011;7649;52.084;7.478;2023-07-29T10:01:14;1.42;;;1.20;;
15096;SDS011;7649;52.084;7.478;2023-07-29T10:03:43;2.17;;;1.00;;
15096;SDS011;7649;52.084;7.478;2023-07-29T10:06:12;1.17;;;1.08;;
15096;SDS011;7649;52.084;7.478;2023-07-29T10:08:44;1.35;;;1.10;;
15096;SDS011;7649;52.084;7.478;2023-07-29T10:11:14;1.45;;;1.08;;
15096;SDS011;7649;52.084;7.478;2023-07-29T10:13:44;1.60;;;1.50;;
15096;SDS011;7649;52.084;7.478;2023-07-29T10:16:29;2.50;;;1.30;;
15096;SDS011;7649;52.084;7.478;2023-07-29T10:18:58;1.63;;;1.52;;
15096;SDS011;7649;52.084;7.478;2023-07-29T10:21:27;1.80;;;1.50;;
15096;SDS011;7649;52.084;7.478;2023-07-29T10:23:58;2.20;;;1.35;;
15096;SDS011;7649;52.084;7.478;2023-07-29T10:26:29;1.42;;;1.33;;
15096;SDS011;7649;52.084;7.478;2023-07-29T10:28:59;1.10;;;1.10;;
15096;SDS011;7649;52.084;7.478;2023-07-29T10:31:32;2.00;;;1.63;;
15096;SDS011;7649;52.084;7.478;2023-07-29T10:34:00;2.03;;;1.70;;
15096;SDS011;7649;52.084;7.478;2023-07-29T10:36:29;1.30;;;1.20;;
15096;SDS011;7649;52.084;7.478;2023-07-29T10:38:59;1.30;;;1.15;;
15096;SDS011;7649;52.084;7.478;2023-07-29T10:46:53;2.45;;;1.30;;
15096;SDS011;7649;52.084;7.478;2023-07-29T10:49:25;1.58;;;1.42;;
15096;SDS011;7649;52.084;7.478;2023-07-29T10:51:57;2.08;;;1.33;;
15096;SDS011;7649;52.084;7.478;2023-07-29T10:54:28;2.33;;;1.90;;
15096;SDS011;7649;52.084;7.478;2023-07-29T10:57:00;1.58;;;1.50;;
15096;SDS011;7649;52.084;7.478;2023-07-29T10:59:32;1.60;;;1.50;;
15096;SDS011;7649;52.084;7.478;2023-07-29T11:02:01;1.58;;;1.48;;
15096;SDS011;7649;52.084;7.478;2023-07-29T11:04:29;4.75;;;1.45;;
15096;SDS011;7649;52.084;7.478;2023-07-29T11:07:21;1.70;;;1.60;;
15096;SDS011;7649;52.084;7.478;2023-07-29T11:10:02;1.60;;;1.42;;
15096;SDS011;7649;52.084;7.478;2023-07-29T11:12:35;1.60;;;1.50;;
15096;SDS011;7649;52.084;7.478;2023-07-29T11:15:03;1.90;;;1.73;;
15096;SDS011;7649;52.084;7.478;2023-07-29T11:17:32;1.58;;;1.52;;
15096;SDS011;7649;52.084;7.478;2023-07-29T11:20:02;1.50;;;1.40;;
15096;SDS011;7649;52.084;7.478;2023-07-29T11:22:34;1.95;;;1.85;;
15096;SDS011;7649;52.084;7.478;2023-07-29T11:25:06;1.75;;;1.65;;
15096;SDS011;7649;52.084;7.478;2023-07-29T11:27:35;1.75;;;1.65;;
15096;SDS011;7649;52.084;7.478;2023-07-29T11:30:04;2.78;;;1.48;;
15096;SDS011;7649;52.084;7.478;2023-07-29T11:32:33;1.38;;;1.27;;
15096;SDS011;7649;52.084;7.478;2023-07-29T11:35:03;1.67;;;1.58;;
15096;SDS011;7649;52.084;7.478;2023-07-29T11:37:32;1.55;;;1.45;;
15096;SDS011;7649;52.084;7.478;2023-07-29T11:40:01;1.55;;;1.45;;
15096;SDS011;7649;52.084;7.478;2023-07-29T11:42:34;1.55;;;1.45;;
15096;SDS011;7649;52.084;7.478;2023-07-29T11:45:02;2.30;;;1.55;;
15096;SDS011;7649;52.084;7.478;2023-07-29T11:47:33;1.63;;;1.52;;
15096;SDS011;7649;52.084;7.478;2023-07-29T11:50:07;1.80;;;1.67;;
15096;SDS011;7649;52.084;7.478;2023-07-29T11:52:36;1.75;;;1.65;;
15096;SDS011;7649;52.084;7.478;2023-07-29T11:55:05;1.73;;;1.50;;
15096;SDS011;7649;52.084;7.478;2023-07-29T11:57:36;1.50;;;1.40;;
15096;SDS011;7649;52.084;7.478;2023-07-29T12:00:06;1.80;;;1.70;;
15096;SDS011;7649;52.084;7.478;2023-07-29T12:02:37;2.10;;;2.00;;
15096;SDS011;7649;52.084;7.478;2023-07-29T12:05:06;2.35;;;1.40;;
15096;SDS011;7649;52.084;7.478;2023-07-29T12:07:35;1.63;;;1.50;;
15096;SDS011;7649;52.084;7.478;2023-07-29T12:10:03;1.45;;;1.33;;
15096;SDS011;7649;52.084;7.478;2023-07-29T12:12:32;2.00;;;1.45;;
15096;SDS011;7649;52.084;7.478;2023-07-29T12:15:02;2.42;;;1.27;;
15096;SDS011;7649;52.084;7.478;2023-07-29T12:17:31;1.52;;;1.45;;
15096;SDS011;7649;52.084;7.478;2023-07-29T12:20:00;1.48;;;1.38;;
15096;SDS011;7649;52.084;7.478;2023-07-29T12:22:28;1.77;;;1.67;;
15096;SDS011;7649;52.084;7.478;2023-07-29T12:24:57;1.80;;;1.70;;
15096;SDS011;7649;52.084;7.478;2023-07-29T12:27:25;2.25;;;1.70;;
15096;SDS011;7649;52.084;7.478;2023-07-29T12:29:53;2.78;;;1.60;;
15096;SDS011;7649;52.084;7.478;2023-07-29T12:32:24;2.58;;;1.42;;
15096;SDS011;7649;52.084;7.478;2023-07-29T12:34:53;1.77;;;1.50;;
15096;SDS011;7649;52.084;7.478;2023-07-29T12:37:30;1.67;;;1.58;;
15096;SDS011;7649;52.084;7.478;2023-07-29T12:39:59;1.60;;;1.52;;
15096;SDS011;7649;52.084;7.478;2023-07-29T12:42:27;3.10;;;1.75;;
15096;SDS011;7649;52.084;7.478;2023-07-29T12:44:55;1.85;;;1.42;;
15096;SDS011;7649;52.084;7.478;2023-07-29T12:47:25;1.90;;;1.80;;
15096;SDS011;7649;52.084;7.478;2023-07-29T12:49:53;1.80;;;1.70;;
15096;SDS011;7649;52.084;7.478;2023-07-29T12:52:22;1.70;;;1.60;;
15096;SDS011;7649;52.084;7.478;2023-07-29T12:54:51;1.98;;;1.70;;
15096;SDS011;7649;52.084;7.478;2023-07-29T12:57:19;3.42;;;1.88;;
15096;SDS011;7649;52.084;7.478;2023-07-29T12:59:48;2.97;;;1.73;;
15096;SDS011;7649;52.084;7.478;2023-07-29T13:02:16;2.63;;;1.70;;
15096;SDS011;7649;52.084;7.478;2023-07-29T13:04:45;1.88;;;1.77;;
15096;SDS011;7649;52.084;7.478;2023-07-29T13:07:14;2.35;;;1.65;;
15096;SDS011;7649;52.084;7.478;2023-07-29T13:09:42;2.30;;;2.10;;
15096;SDS011;7649;52.084;7.478;2023-07-29T13:12:11;1.75;;;1.50;;
15096;SDS011;7649;52.084;7.478;2023-07-29T13:14:39;1.73;;;1.63;;
15096;SDS011;7649;52.084;7.478;2023-07-29T13:17:07;2.10;;;1.95;;
15096;SDS011;7649;52.084;7.478;2023-07-29T13:19:36;1.63;;;1.50;;
15096;SDS011;7649;52.084;7.478;2023-07-29T13:22:05;3.28;;;1.80;;
15096;SDS011;7649;52.084;7.478;2023-07-29T13:24:34;2.47;;;1.90;;
15096;SDS011;7649;52.084;7.478;2023-07-29T13:27:02;2.47;;;1.85;;
15096;SDS011;7649;52.084;7.478;2023-07-29T13:29:31;2.50;;;1.90;;
15096;SDS011;7649;52.084;7.478;2023-07-29T13:31:59;5.53;;;3.05;;
15096;SDS011;7649;52.084;7.478;2023-07-29T13:34:28;5.43;;;2.35;;
15096;SDS011;7649;52.084;7.478;2023-07-29T13:36:59;7.43;;;3.22;;
15096;SDS011;7649;52.084;7.478;2023-07-29T13:39:28;7.70;;;3.63;;
15096;SDS011;7649;52.084;7.478;2023-07-29T13:41:57;5.35;;;2.67;;
15096;SDS011;7649;52.084;7.478;2023-07-29T13:44:25;6.68;;;3.10;;
15096;SDS011;7649;52.084;7.478;2023-07-29T13:46:53;4.93;;;2.53;;
15096;SDS011;7649;52.084;7.478;2023-07-29T13:49:22;3.22;;;2.58;;
15096;SDS011;7649;52.084;7.478;2023-07-29T13:51:50;2.90;;;2.60;;
15096;SDS011;7649;52.084;7.478;2023-07-29T13:54:18;5.45;;;2.60;;
15096;SDS011;7649;52.084;7.478;2023-07-29T13:56:49;5.75;;;2.97;;
15096;SDS011;7649;52.084;7.478;2023-07-29T13:59:17;2.40;;;2.20;;
15096;SDS011;7649;52.084;7.478;2023-07-29T14:01:45;5.30;;;2.63;;
15096;SDS011;7649;52.084;7.478;2023-07-29T14:04:14;5.75;;;2.50;;
15096;SDS011;7649;52.084;7.478;2023-07-29T14:06:42;4.28;;;2.65;;
15096;SDS011;7649;52.084;7.478;2023-07-29T14:09:16;3.92;;;2.70;;
15096;SDS011;7649;52.084;7.478;2023-07-29T14:11:44;4.80;;;2.80;;
15096;SDS011;7649;52.084;7.478;2023-07-29T14:14:14;3.97;;;2.47;;
15096;SDS011;7649;52.084;7.478;2023-07-29T14:16:45;3.92;;;2.70;;
15096;SDS011;7649;52.084;7.478;2023-07-29T14:19:13;5.03;;;2.72;;
15096;SDS011;7649;52.084;7.478;2023-07-29T14:21:41;3.85;;;2.63;;
15096;SDS011;7649;52.084;7.478;2023-07-29T14:24:10;3.40;;;3.00;;
15096;SDS011;7649;52.084;7.478;2023-07-29T14:26:38;5.47;;;3.28;;
15096;SDS011;7649;52.084;7.478;2023-07-29T14:29:07;3.30;;;2.90;;
15096;SDS011;7649;52.084;7.478;2023-07-29T14:31:36;3.03;;;2.72;;
15096;SDS011;7649;52.084;7.478;2023-07-29T14:34:05;3.35;;;2.95;;
15096;SDS011;7649;52.084;7.478;2023-07-29T14:36:33;2.90;;;2.70;;
15096;SDS011;7649;52.084;7.478;2023-07-29T14:39:02;2.88;;;2.67;;
15096;SDS011;7649;52.084;7.478;2023-07-29T14:41:30;2.75;;;2.55;;
15096;SDS011;7649;52.084;7.478;2023-07-29T14:43:58;2.63;;;2.53;;
15096;SDS011;7649;52.084;7.478;2023-07-29T14:46:27;2.67;;;2.47;;
15096;SDS011;7649;52.084;7.478;2023-07-29T14:48:56;3.03;;;2.60;;
15096;SDS011;7649;52.084;7.478;2023-07-29T14:51:25;6.63;;;2.55;;
15096;SDS011;7649;52.084;7.478;2023-07-29T14:53:53;3.50;;;2.38;;
15096;SDS011;7649;52.084;7.478;2023-07-29T14:56:22;3.38;;;2.20;;
15096;SDS011;7649;52.084;7.478;2023-07-29T14:58:50;2.08;;;1.98;;
15096;SDS011;7649;52.084;7.478;2023-07-29T15:01:19;3.60;;;2.35;;
15096;SDS011;7649;52.084;7.478;2023-07-29T15:03:47;2.00;;;1.90;;
15096;SDS011;7649;52.084;7.478;2023-07-29T15:06:17;2.30;;;1.63;;
15096;SDS011;7649;52.084;7.478;2023-07-29T15:08:45;2.85;;;1.52;;
15096;SDS011;7649;52.084;7.478;2023-07-29T15:11:14;1.25;;;1.25;;